Time;durP1;ratioP1;P1;durP2;ratioP2;P2;SDS_P1;SDS_P2;PMS_P1;PMS_P2;Temp;Humidity;BMP_temperature;BMP_pressure;BME280_temperature;BME280_humidity;BME280_pressure;Samples;Min_cycle;Max_cycle;Signal;HPM_P1;HPM_P2
2024/01/02 00:01:50;;;;;;;13.23;2.07;;;;;;;;;;5015620;28;20288;-75
2024/01/02 00:04:16;;;;;;;13.77;2.13;;;;;;;;;;5009514;28;20228;-75
2024/01/02 00:06:41;;;;;;;14.70;2.50;;;;;;;;;;5027005;28;20297;-75
2024/01/02 00:09:07;;;;;;;14.00;2.27;;;;;;;;;;5027014;28;20202;-75
2024/01/02 00:11:32;;;;;;;15.90;2.37;;;;;;;;;;5011287;28;20186;-75
2024/01/02 00:13:58;;;;;;;15.20;2.47;;;;;;;;;;5028172;28;20187;-75
2024/01/02 00:16:23;;;;;;;16.33;2.77;;;;;;;;;;5012100;28;20182;-75
2024/01/02 00:18:49;;;;;;;19.40;2.77;;;;;;;;;;5012135;28;20209;-75
2024/01/02 00:21:14;;;;;;;15.33;2.50;;;;;;;;;;5008757;28;20221;-75
2024/01/02 00:23:39;;;;;;;20.40;2.83;;;;;;;;;;5009413;28;20476;-75
2024/01/02 00:26:05;;;;;;;17.97;2.70;;;;;;;;;;5007184;28;20261;-75
2024/01/02 00:28:30;;;;;;;16.70;2.63;;;;;;;;;;5002549;28;20197;-75
2024/01/02 00:30:56;;;;;;;15.87;2.33;;;;;;;;;;5007879;28;20619;-75
2024/01/02 00:33:21;;;;;;;25.07;2.80;;;;;;;;;;5000964;28;20217;-75
2024/01/02 00:35:47;;;;;;;18.73;3.23;;;;;;;;;;5005631;28;20186;-75
2024/01/02 00:38:12;;;;;;;20.53;2.97;;;;;;;;;;5010781;28;20308;-74
2024/01/02 00:40:38;;;;;;;23.93;3.63;;;;;;;;;;5004987;28;20183;-75
2024/01/02 00:43:03;;;;;;;22.07;3.57;;;;;;;;;;5007067;28;20241;-75
2024/01/02 00:45:29;;;;;;;22.37;3.90;;;;;;;;;;5014393;28;20195;-75
2024/01/02 00:47:55;;;;;;;19.37;3.43;;;;;;;;;;5003376;28;20198;-74
2024/01/02 00:50:21;;;;;;;26.77;4.07;;;;;;;;;;5004258;28;20195;-75
2024/01/02 00:52:47;;;;;;;23.20;3.37;;;;;;;;;;4996574;28;20197;-76
2024/01/02 00:55:12;;;;;;;17.20;4.13;;;;;;;;;;4993083;28;20674;-75
2024/01/02 00:57:38;;;;;;;16.63;3.80;;;;;;;;;;5008799;28;20183;-75
2024/01/02 01:00:04;;;;;;;22.10;3.80;;;;;;;;;;5007885;28;20183;-76
2024/01/02 01:02:30;;;;;;;23.03;4.07;;;;;;;;;;5015404;28;20193;-74
2024/01/02 01:04:56;;;;;;;21.10;3.80;;;;;;;;;;5008178;28;20494;-75
2024/01/02 01:07:21;;;;;;;22.83;4.07;;;;;;;;;;5005965;28;20260;-74
2024/01/02 01:09:47;;;;;;;24.60;3.87;;;;;;;;;;4993497;28;20200;-74
2024/01/02 01:12:12;;;;;;;22.13;5.00;;;;;;;;;;5005984;28;20187;-74
2024/01/02 01:14:37;;;;;;;26.40;3.57;;;;;;;;;;5030322;28;20198;-74
2024/01/02 01:17:05;;;;;;;16.77;3.67;;;;;;;;;;5007161;28;20183;-74
2024/01/02 01:19:32;;;;;;;23.10;3.70;;;;;;;;;;4999356;28;20666;-74
2024/01/02 01:21:57;;;;;;;26.70;3.80;;;;;;;;;;5023259;28;20269;-76
2024/01/02 01:24:22;;;;;;;17.63;3.10;;;;;;;;;;5029171;28;20375;-76
2024/01/02 01:26:52;;;;;;;18.47;3.80;;;;;;;;;;5024055;28;20224;-75
2024/01/02 01:29:20;;;;;;;16.00;2.83;;;;;;;;;;5023672;28;20229;-75
2024/01/02 01:31:45;;;;;;;14.70;3.90;;;;;;;;;;4993509;28;20664;-76
2024/01/02 01:34:11;;;;;;;16.50;3.60;;;;;;;;;;5025791;28;20190;-76
2024/01/02 01:36:36;;;;;;;19.98;4.47;;;;;;;;;;5011791;28;20190;-75
2024/01/02 01:39:02;;;;;;;12.38;3.30;;;;;;;;;;5026874;28;20194;-75
2024/01/02 01:41:27;;;;;;;14.40;3.20;;;;;;;;;;5021145;28;20186;-74
2024/01/02 01:43:53;;;;;;;16.87;3.33;;;;;;;;;;5019325;28;20685;-75
2024/01/02 01:46:18;;;;;;;12.27;3.60;;;;;;;;;;5010122;28;20277;-75
2024/01/02 01:48:45;;;;;;;15.37;3.83;;;;;;;;;;5028998;28;20300;-76
2024/01/02 01:51:10;;;;;;;15.43;3.20;;;;;;;;;;5011121;28;20213;-76
2024/01/02 01:53:36;;;;;;;13.93;3.10;;;;;;;;;;5028624;28;20178;-75
2024/01/02 01:56:03;;;;;;;14.27;3.00;;;;;;;;;;5020524;28;20273;-75
2024/01/02 01:58:31;;;;;;;14.88;3.00;;;;;;;;;;4996566;28;20214;-76
2024/01/02 02:00:57;;;;;;;7.75;2.72;;;;;;;;;;5008282;28;20182;-75
2024/01/02 02:03:26;;;;;;;16.17;3.03;;;;;;;;;;5018775;28;20657;-75
2024/01/02 02:05:51;;;;;;;12.93;3.30;;;;;;;;;;5024835;28;20182;-77
2024/01/02 02:08:17;;;;;;;11.07;2.90;;;;;;;;;;5000037;28;20187;-76
2024/01/02 02:10:42;;;;;;;14.68;3.13;;;;;;;;;;5000910;28;20202;-76
2024/01/02 02:13:08;;;;;;;13.77;3.10;;;;;;;;;;5009152;28;20384;-76
2024/01/02 02:15:38;;;;;;;9.38;2.45;;;;;;;;;;5009790;28;20267;-76
2024/01/02 02:18:04;;;;;;;10.00;2.73;;;;;;;;;;4991722;28;20293;-76
2024/01/02 02:20:29;;;;;;;13.40;3.00;;;;;;;;;;5016465;28;20627;-75
2024/01/02 02:22:55;;;;;;;12.00;2.50;;;;;;;;;;5008824;28;20244;-76
2024/01/02 02:25:20;;;;;;;16.73;3.00;;;;;;;;;;5018678;28;20205;-77
2024/01/02 02:27:46;;;;;;;13.38;2.78;;;;;;;;;;5007611;28;20198;-76
2024/01/02 02:30:13;;;;;;;15.90;2.60;;;;;;;;;;5021795;28;20253;-77
2024/01/02 02:32:38;;;;;;;12.20;2.92;;;;;;;;;;5010472;28;20232;-77
2024/01/02 02:35:05;;;;;;;7.13;2.25;;;;;;;;;;5021043;28;20182;-76
2024/01/02 02:37:31;;;;;;;7.55;1.98;;;;;;;;;;5029367;28;20604;-76
2024/01/02 02:39:56;;;;;;;10.13;2.50;;;;;;;;;;5034440;28;20190;-75
2024/01/02 02:42:21;;;;;;;13.73;2.45;;;;;;;;;;5029126;28;20178;-76
2024/01/02 02:44:47;;;;;;;10.75;2.13;;;;;;;;;;5014349;28;20186;-75
2024/01/02 02:47:12;;;;;;;7.78;2.30;;;;;;;;;;5007532;28;20192;-75
2024/01/02 02:49:38;;;;;;;8.45;1.83;;;;;;;;;;5025705;28;20214;-76
2024/01/02 02:52:04;;;;;;;5.38;2.20;;;;;;;;;;5032940;28;20201;-75
2024/01/02 02:54:30;;;;;;;7.38;1.95;;;;;;;;;;5015809;28;20194;-76
2024/01/02 02:56:56;;;;;;;8.18;1.80;;;;;;;;;;5012730;28;20686;-76
2024/01/02 02:59:21;;;;;;;7.90;2.05;;;;;;;;;;4983815;28;20179;-75
2024/01/02 03:01:47;;;;;;;10.57;2.38;;;;;;;;;;5026124;28;20217;-76
2024/01/02 03:04:12;;;;;;;7.90;1.83;;;;;;;;;;5030754;28;20189;-76
2024/01/02 03:06:38;;;;;;;7.68;1.77;;;;;;;;;;5028239;28;20194;-76
2024/01/02 03:09:04;;;;;;;8.40;1.80;;;;;;;;;;5026079;28;20618;-77
2024/01/02 03:11:30;;;;;;;5.78;1.55;;;;;;;;;;5015472;28;20557;-76
2024/01/02 03:13:55;;;;;;;7.10;1.67;;;;;;;;;;5027805;28;20197;-77
2024/01/02 03:16:23;;;;;;;4.15;1.60;;;;;;;;;;5009581;28;20190;-75
2024/01/02 03:18:48;;;;;;;4.85;1.60;;;;;;;;;;5024120;28;20217;-76
2024/01/02 03:21:14;;;;;;;7.03;1.48;;;;;;;;;;5024438;28;20280;-76
2024/01/02 03:23:39;;;;;;;5.20;1.45;;;;;;;;;;5015916;28;20185;-77
2024/01/02 03:26:05;;;;;;;5.40;1.60;;;;;;;;;;5020018;28;20241;-76
2024/01/02 03:28:31;;;;;;;6.85;1.63;;;;;;;;;;5015869;28;20658;-77
2024/01/02 03:30:57;;;;;;;6.30;1.45;;;;;;;;;;5019393;28;20210;-76
2024/01/02 03:33:22;;;;;;;4.00;1.48;;;;;;;;;;5043841;28;20204;-76
2024/01/02 03:35:48;;;;;;;7.97;0.90;;;;;;;;;;5019044;28;20190;-77
2024/01/02 03:38:14;;;;;;;4.90;1.08;;;;;;;;;;5034089;28;20567;-77
2024/01/02 03:40:39;;;;;;;6.85;1.23;;;;;;;;;;5033988;28;20241;-77
2024/01/02 03:43:05;;;;;;;8.77;1.10;;;;;;;;;;5016966;28;20185;-77
2024/01/02 03:45:31;;;;;;;5.75;1.48;;;;;;;;;;5032848;28;20461;-77
2024/01/02 03:47:56;;;;;;;5.80;1.05;;;;;;;;;;5012684;28;20193;-76
2024/01/02 03:50:23;;;;;;;4.30;0.88;;;;;;;;;;5029893;28;20561;-77
2024/01/02 03:52:48;;;;;;;4.78;1.10;;;;;;;;;;5013431;28;20671;-76
2024/01/02 03:55:14;;;;;;;4.82;1.00;;;;;;;;;;5014274;28;20296;-77
2024/01/02 03:57:39;;;;;;;3.22;0.73;;;;;;;;;;5030408;28;20612;-77
2024/01/02 04:00:05;;;;;;;4.18;0.90;;;;;;;;;;5032659;28;20262;-77
2024/01/02 04:02:30;;;;;;;4.47;1.10;;;;;;;;;;5037102;28;20190;-77
2024/01/02 04:04:56;;;;;;;6.00;1.25;;;;;;;;;;5031234;28;20274;-77
2024/01/02 04:07:22;;;;;;;5.93;1.13;;;;;;;;;;5012652;28;20193;-78
2024/01/02 04:09:47;;;;;;;5.38;0.90;;;;;;;;;;5007796;28;20633;-77
2024/01/02 04:12:13;;;;;;;2.97;0.80;;;;;;;;;;5006074;28;20282;-77
2024/01/02 04:14:38;;;;;;;2.80;0.95;;;;;;;;;;5012959;28;20190;-77
2024/01/02 04:17:04;;;;;;;3.13;0.73;;;;;;;;;;5012777;28;20190;-78
2024/01/02 04:19:29;;;;;;;7.75;0.70;;;;;;;;;;4995510;28;20201;-77
2024/01/02 04:21:55;;;;;;;3.20;0.75;;;;;;;;;;5013479;28;20194;-76
2024/01/02 04:24:20;;;;;;;3.45;0.70;;;;;;;;;;5008069;28;20174;-77
2024/01/02 04:26:46;;;;;;;2.58;0.77;;;;;;;;;;5026923;28;20349;-77
2024/01/02 04:29:11;;;;;;;3.10;0.73;;;;;;;;;;4993083;28;20253;-76
2024/01/02 04:31:36;;;;;;;3.17;0.75;;;;;;;;;;5025496;28;20594;-78
2024/01/02 04:34:02;;;;;;;2.05;0.80;;;;;;;;;;5014056;28;20190;-77
2024/01/02 04:36:27;;;;;;;6.93;1.08;;;;;;;;;;5012521;28;20190;-77
2024/01/02 04:38:53;;;;;;;3.80;0.90;;;;;;;;;;4987768;28;20179;-77
2024/01/02 04:41:20;;;;;;;2.90;0.80;;;;;;;;;;5023304;28;20183;-77
2024/01/02 04:43:45;;;;;;;2.13;0.90;;;;;;;;;;5028309;28;20194;-76
2024/01/02 04:46:11;;;;;;;3.40;1.00;;;;;;;;;;5027160;28;20217;-75
2024/01/02 04:48:36;;;;;;;3.15;1.00;;;;;;;;;;5029471;28;20200;-76
2024/01/02 04:51:02;;;;;;;2.05;0.98;;;;;;;;;;5031555;28;20712;-76
2024/01/02 04:53:28;;;;;;;3.92;1.05;;;;;;;;;;5009402;28;20655;-76
2024/01/02 04:55:53;;;;;;;2.67;1.10;;;;;;;;;;5008795;28;20183;-77
2024/01/02 04:58:19;;;;;;;1.60;1.08;;;;;;;;;;5023806;28;20633;-77
2024/01/02 05:00:45;;;;;;;1.77;1.10;;;;;;;;;;5012867;28;20197;-77
2024/01/02 05:03:10;;;;;;;3.42;1.05;;;;;;;;;;5024795;28;20218;-77
2024/01/02 05:05:36;;;;;;;2.47;0.85;;;;;;;;;;5025491;28;20201;-75
2024/01/02 05:08:01;;;;;;;2.35;1.02;;;;;;;;;;5025461;28;20190;-75
2024/01/02 05:10:26;;;;;;;4.53;1.30;;;;;;;;;;5010689;28;20697;-75
2024/01/02 05:12:52;;;;;;;0.95;0.80;;;;;;;;;;5028484;28;20186;-76
2024/01/02 05:15:18;;;;;;;1.55;1.00;;;;;;;;;;5026083;28;20182;-76
2024/01/02 05:17:44;;;;;;;1.38;0.90;;;;;;;;;;5020726;28;20198;-75
2024/01/02 05:20:10;;;;;;;3.42;1.00;;;;;;;;;;4986455;28;20284;-76
2024/01/02 05:22:35;;;;;;;3.60;1.10;;;;;;;;;;5008504;28;20198;-76
2024/01/02 05:25:01;;;;;;;3.97;1.15;;;;;;;;;;5009535;28;20186;-75
2024/01/02 05:27:26;;;;;;;1.70;0.85;;;;;;;;;;5004412;28;20179;-76
2024/01/02 05:29:51;;;;;;;1.08;0.85;;;;;;;;;;5005900;28;20207;-76
2024/01/02 05:32:17;;;;;;;1.10;0.98;;;;;;;;;;5008619;28;20273;-76
2024/01/02 05:34:42;;;;;;;1.17;0.80;;;;;;;;;;5006331;28;20195;-75
2024/01/02 05:37:08;;;;;;;2.22;1.00;;;;;;;;;;4998626;28;20298;-76
2024/01/02 05:39:33;;;;;;;1.33;0.93;;;;;;;;;;5008798;28;20191;-76
2024/01/02 05:41:59;;;;;;;1.20;1.10;;;;;;;;;;5002664;28;20187;-76
2024/01/02 05:44:24;;;;;;;1.35;1.10;;;;;;;;;;5004256;28;20190;-76
2024/01/02 05:46:50;;;;;;;1.30;1.20;;;;;;;;;;4991603;28;20183;-76
2024/01/02 05:49:15;;;;;;;1.13;1.00;;;;;;;;;;5005651;28;20191;-76
2024/01/02 05:51:41;;;;;;;1.92;1.52;;;;;;;;;;5000115;28;20206;-76
2024/01/02 05:54:06;;;;;;;3.53;1.67;;;;;;;;;;5006583;28;20183;-76
2024/01/02 05:56:32;;;;;;;1.88;1.77;;;;;;;;;;4992095;28;20866;-76
2024/01/02 05:58:57;;;;;;;1.83;1.73;;;;;;;;;;5004859;28;20222;-76
2024/01/02 06:01:23;;;;;;;2.25;2.13;;;;;;;;;;5000066;28;20175;-76
2024/01/02 06:03:48;;;;;;;2.75;2.13;;;;;;;;;;5005949;28;20642;-76
2024/01/02 06:06:13;;;;;;;2.83;2.53;;;;;;;;;;5022619;28;20201;-76
2024/01/02 06:08:39;;;;;;;2.80;2.60;;;;;;;;;;5007803;28;20209;-76
2024/01/02 06:11:05;;;;;;;4.53;2.67;;;;;;;;;;5002450;28;20227;-76
2024/01/02 06:13:30;;;;;;;3.50;3.13;;;;;;;;;;5007308;28;20195;-75
2024/01/02 06:15:56;;;;;;;3.20;3.00;;;;;;;;;;5006071;28;20186;-76
2024/01/02 06:18:21;;;;;;;3.55;3.25;;;;;;;;;;5008612;28;20218;-75
2024/01/02 06:20:47;;;;;;;3.97;3.30;;;;;;;;;;5020519;28;20732;-76
2024/01/02 06:23:13;;;;;;;3.20;3.00;;;;;;;;;;5005334;28;20331;-76
2024/01/02 06:25:38;;;;;;;5.53;3.17;;;;;;;;;;5021082;28;20284;-75
2024/01/02 06:28:04;;;;;;;3.40;3.10;;;;;;;;;;5007011;28;20194;-76
2024/01/02 06:30:29;;;;;;;3.60;3.30;;;;;;;;;;5024904;28;20216;-76
2024/01/02 06:32:54;;;;;;;3.38;3.10;;;;;;;;;;5005518;28;20190;-75
2024/01/02 06:35:20;;;;;;;3.58;3.28;;;;;;;;;;5018132;28;20653;-75
2024/01/02 06:37:45;;;;;;;3.60;3.30;;;;;;;;;;5014168;28;20241;-76
2024/01/02 06:40:11;;;;;;;3.17;2.88;;;;;;;;;;5017273;28;20197;-75
2024/01/02 06:42:36;;;;;;;3.50;3.20;;;;;;;;;;5030059;28;20190;-76
2024/01/02 06:45:01;;;;;;;3.10;2.80;;;;;;;;;;4999092;28;20728;-75
2024/01/02 06:47:27;;;;;;;3.05;2.80;;;;;;;;;;5029929;28;20196;-76
2024/01/02 06:49:52;;;;;;;3.08;2.58;;;;;;;;;;5019984;28;20229;-76
2024/01/02 06:52:18;;;;;;;3.15;2.85;;;;;;;;;;5007750;28;20256;-75
2024/01/02 06:54:43;;;;;;;2.72;2.45;;;;;;;;;;5027511;28;20198;-75
2024/01/02 06:57:09;;;;;;;2.75;2.35;;;;;;;;;;5013150;28;20191;-76
2024/01/02 06:59:34;;;;;;;2.70;2.50;;;;;;;;;;5023900;28;20244;-76
2024/01/02 07:02:00;;;;;;;3.50;2.72;;;;;;;;;;4990626;28;20591;-76
2024/01/02 07:04:25;;;;;;;4.07;2.88;;;;;;;;;;5023986;28;20186;-76
2024/01/02 07:06:52;;;;;;;2.50;2.30;;;;;;;;;;5023273;28;20673;-76
2024/01/02 07:09:18;;;;;;;2.85;2.55;;;;;;;;;;5020580;28;20195;-75
2024/01/02 07:11:44;;;;;;;2.75;2.45;;;;;;;;;;5015835;28;20208;-75
2024/01/02 07:14:10;;;;;;;3.05;2.58;;;;;;;;;;5022752;28;20205;-75
2024/01/02 07:16:36;;;;;;;2.63;2.42;;;;;;;;;;5026489;28;20194;-75
2024/01/02 07:19:01;;;;;;;2.63;2.33;;;;;;;;;;5005670;28;20218;-75
2024/01/02 07:21:27;;;;;;;3.13;2.63;;;;;;;;;;5023556;28;20258;-75
2024/01/02 07:23:52;;;;;;;2.75;2.50;;;;;;;;;;5008686;28;20248;-76
2024/01/02 07:26:18;;;;;;;2.90;2.28;;;;;;;;;;5022229;28;20221;-75
2024/01/02 07:28:43;;;;;;;3.08;2.40;;;;;;;;;;5030177;28;20190;-76
2024/01/02 07:31:10;;;;;;;3.67;2.95;;;;;;;;;;5009191;28;20297;-76
2024/01/02 07:33:36;;;;;;;2.70;2.45;;;;;;;;;;4998812;28;20206;-75
2024/01/02 07:36:02;;;;;;;3.08;2.30;;;;;;;;;;5015595;28;20224;-74
2024/01/02 07:38:27;;;;;;;3.55;2.80;;;;;;;;;;5005881;28;20191;-76
2024/01/02 07:40:54;;;;;;;3.47;2.60;;;;;;;;;;5024788;28;20186;-75
2024/01/02 07:43:19;;;;;;;3.70;2.90;;;;;;;;;;5005586;28;20178;-76
2024/01/02 07:45:45;;;;;;;5.90;3.13;;;;;;;;;;5011029;28;20186;-75
2024/01/02 07:48:10;;;;;;;3.85;3.05;;;;;;;;;;5026219;28;20190;-75
2024/01/02 07:50:35;;;;;;;5.22;3.90;;;;;;;;;;5001213;28;20219;-75
2024/01/02 07:53:01;;;;;;;5.88;3.55;;;;;;;;;;5021961;28;20186;-75
2024/01/02 07:55:26;;;;;;;4.93;3.80;;;;;;;;;;5027482;28;20352;-75
2024/01/02 07:57:52;;;;;;;6.95;4.22;;;;;;;;;;5030761;28;20276;-75
2024/01/02 08:00:17;;;;;;;6.28;4.43;;;;;;;;;;5012834;28;20584;-75
2024/01/02 08:02:43;;;;;;;5.28;4.20;;;;;;;;;;5029772;28;20654;-75
2024/01/02 08:05:09;;;;;;;9.57;4.80;;;;;;;;;;5009729;28;20558;-75
2024/01/02 08:07:34;;;;;;;8.15;5.10;;;;;;;;;;5029681;28;20571;-75
2024/01/02 08:09:59;;;;;;;7.95;4.93;;;;;;;;;;5021732;28;20210;-75
2024/01/02 08:12:25;;;;;;;9.05;5.07;;;;;;;;;;5023834;28;20190;-75
2024/01/02 08:14:50;;;;;;;8.70;5.15;;;;;;;;;;5008255;28;20585;-75
2024/01/02 08:17:23;;;;;;;14.38;6.13;;;;;;;;;;5029341;28;20701;-75
2024/01/02 08:19:48;;;;;;;10.88;5.70;;;;;;;;;;5026822;28;20233;-75
2024/01/02 08:22:14;;;;;;;11.77;5.85;;;;;;;;;;5024391;28;20252;-75
2024/01/02 08:24:39;;;;;;;12.48;6.15;;;;;;;;;;5026863;28;20182;-75
2024/01/02 08:27:05;;;;;;;12.02;6.05;;;;;;;;;;5013235;28;20182;-75
2024/01/02 08:29:30;;;;;;;12.20;6.57;;;;;;;;;;5029692;28;20219;-75
2024/01/02 08:31:55;;;;;;;12.10;6.18;;;;;;;;;;5012066;28;20650;-75
2024/01/02 08:34:21;;;;;;;11.98;5.57;;;;;;;;;;5010782;28;20274;-76
2024/01/02 08:36:46;;;;;;;13.68;6.25;;;;;;;;;;5027970;28;20201;-75
2024/01/02 08:39:12;;;;;;;12.93;6.47;;;;;;;;;;5011510;28;20183;-76
2024/01/02 08:41:37;;;;;;;11.32;5.68;;;;;;;;;;5010483;28;20269;-75
2024/01/02 08:44:03;;;;;;;17.88;6.40;;;;;;;;;;4994525;28;20208;-75
2024/01/02 08:46:28;;;;;;;17.27;7.05;;;;;;;;;;5025823;28;20202;-75
2024/01/02 08:48:54;;;;;;;17.25;5.88;;;;;;;;;;4995931;28;20636;-75
2024/01/02 08:51:20;;;;;;;17.02;6.75;;;;;;;;;;5022308;28;20665;-75
2024/01/02 08:53:45;;;;;;;16.65;6.88;;;;;;;;;;5021344;28;20545;-76
2024/01/02 08:56:11;;;;;;;20.02;6.38;;;;;;;;;;5008022;28;20183;-76
2024/01/02 08:58:37;;;;;;;20.88;6.07;;;;;;;;;;4994040;28;20274;-75
2024/01/02 09:01:03;;;;;;;22.15;6.43;;;;;;;;;;5023524;28;20190;-76
2024/01/02 09:03:30;;;;;;;20.65;5.78;;;;;;;;;;5027465;28;20213;-76
2024/01/02 09:05:56;;;;;;;23.17;7.43;;;;;;;;;;5009584;28;20186;-75
2024/01/02 09:08:21;;;;;;;24.50;6.50;;;;;;;;;;5025440;28;20644;-76
2024/01/02 09:10:47;;;;;;;24.92;5.63;;;;;;;;;;5010296;28;20202;-76
2024/01/02 09:13:12;;;;;;;28.13;6.15;;;;;;;;;;5025280;28;20198;-76
2024/01/02 09:15:39;;;;;;;32.60;5.70;;;;;;;;;;5026436;28;20198;-75
2024/01/02 09:18:04;;;;;;;25.83;6.10;;;;;;;;;;5028446;28;20217;-76
2024/01/02 09:20:30;;;;;;;23.75;4.93;;;;;;;;;;5009426;28;20238;-76
2024/01/02 09:22:55;;;;;;;23.25;5.47;;;;;;;;;;4325653;28;10000696;-76
2024/01/02 09:25:25;;;;;;;27.35;4.95;;;;;;;;;;4989389;28;20276;-75
2024/01/02 09:27:56;;;;;;;20.90;4.72;;;;;;;;;;5005363;28;20185;-75
2024/01/02 09:30:23;;;;;;;27.27;5.50;;;;;;;;;;5016204;28;20560;-75
2024/01/02 09:32:49;;;;;;;24.77;4.57;;;;;;;;;;5024206;28;20634;-75
2024/01/02 09:35:15;;;;;;;24.15;5.22;;;;;;;;;;5029959;28;20264;-74
2024/01/02 09:37:41;;;;;;;34.25;5.63;;;;;;;;;;5007729;28;20766;-75
2024/01/02 09:40:38;;;;;;;24.13;5.80;;;;;;;;;;5013412;28;20244;-76
2024/01/02 09:43:29;;;;;;;21.73;5.53;;;;;;;;;;5016746;28;20213;-76
2024/01/02 09:46:13;;;;;;;22.55;5.38;;;;;;;;;;5022807;28;20190;-76
2024/01/02 09:49:07;;;;;;;24.70;5.28;;;;;;;;;;5005264;28;20273;-75
2024/01/02 09:52:00;;;;;;;30.63;5.35;;;;;;;;;;5002150;28;20215;-77
2024/01/02 09:54:40;;;;;;;24.48;5.57;;;;;;;;;;4998702;28;20661;-76
2024/01/02 09:57:19;;;;;;;28.23;5.03;;;;;;;;;;5024209;28;20202;-75
2024/01/02 10:00:05;;;;;;;25.08;5.82;;;;;;;;;;5015176;28;20582;-76
2024/01/02 10:02:43;;;;;;;28.35;5.13;;;;;;;;;;5007713;28;20186;-76
2024/01/02 10:05:25;;;;;;;28.63;5.50;;;;;;;;;;5007958;28;20666;-75
2024/01/02 10:08:08;;;;;;;21.33;5.00;;;;;;;;;;5022717;28;20544;-76
2024/01/02 10:10:54;;;;;;;29.65;5.32;;;;;;;;;;5033276;28;20739;-75
2024/01/02 10:13:29;;;;;;;26.52;5.45;;;;;;;;;;5018358;28;20825;-75
2024/01/02 10:16:08;;;;;;;22.42;4.90;;;;;;;;;;5026862;28;20185;-75
2024/01/02 10:19:01;;;;;;;24.60;4.53;;;;;;;;;;5022153;28;20324;-75
2024/01/02 10:21:42;;;;;;;24.80;4.50;;;;;;;;;;5027188;28;20218;-75
2024/01/02 10:24:24;;;;;;;28.60;5.43;;;;;;;;;;5002138;28;20244;-76
2024/01/02 10:27:23;;;;;;;16.15;4.05;;;;;;;;;;5001243;28;20255;-76
2024/01/02 10:30:02;;;;;;;26.90;4.35;;;;;;;;;;5005285;28;20226;-76
2024/01/02 10:32:32;;;;;;;28.88;4.60;;;;;;;;;;5023395;28;20208;-76
2024/01/02 10:35:05;;;;;;;27.75;5.05;;;;;;;;;;5016044;28;20197;-75
2024/01/02 10:37:38;;;;;;;19.67;3.38;;;;;;;;;;4998682;28;20218;-75
2024/01/02 10:40:12;;;;;;;25.40;4.28;;;;;;;;;;5022499;28;20174;-75
2024/01/02 10:42:56;;;;;;;24.95;3.88;;;;;;;;;;5024920;28;20201;-75
2024/01/02 10:45:31;;;;;;;31.48;4.70;;;;;;;;;;5009309;28;20185;-75
2024/01/02 10:48:15;;;;;;;28.08;3.92;;;;;;;;;;5027723;28;20256;-75
2024/01/02 10:50:57;;;;;;;27.13;4.50;;;;;;;;;;5035558;28;20336;-74
2024/01/02 10:53:38;;;;;;;19.83;4.53;;;;;;;;;;5014537;28;20243;-75
2024/01/02 10:56:16;;;;;;;23.45;5.07;;;;;;;;;;4993776;28;20198;-74
2024/01/02 10:58:54;;;;;;;25.40;3.88;;;;;;;;;;5029133;28;20640;-75
2024/01/02 11:01:22;;;;;;;31.83;5.70;;;;;;;;;;5024736;28;20186;-75
2024/01/02 11:04:01;;;;;;;30.75;4.70;;;;;;;;;;5007670;28;20201;-75
2024/01/02 11:06:42;;;;;;;32.00;5.63;;;;;;;;;;5010109;28;20181;-75
2024/01/02 11:09:27;;;;;;;29.33;5.45;;;;;;;;;;5028114;28;20653;-75
2024/01/02 11:11:55;;;;;;;26.38;4.95;;;;;;;;;;5015802;28;20187;-75
2024/01/02 11:14:22;;;;;;;26.80;5.78;;;;;;;;;;5016286;28;20305;-74
2024/01/02 11:16:51;;;;;;;30.95;6.30;;;;;;;;;;5036187;28;20197;-74
2024/01/02 11:19:22;;;;;;;24.67;6.05;;;;;;;;;;5034426;28;20214;-74
2024/01/02 11:21:58;;;;;;;29.17;5.78;;;;;;;;;;5029732;28;20237;-74
2024/01/02 11:24:27;;;;;;;28.85;5.63;;;;;;;;;;5031300;28;20743;-75
2024/01/02 11:26:56;;;;;;;23.60;6.10;;;;;;;;;;5022590;28;20225;-75
2024/01/02 11:29:23;;;;;;;26.60;7.13;;;;;;;;;;5013472;28;20178;-75
2024/01/02 11:31:50;;;;;;;25.52;6.97;;;;;;;;;;5020645;28;20186;-75
2024/01/02 11:34:48;;;;;;;27.20;6.47;;;;;;;;;;5013795;28;20577;-75
2024/01/02 11:37:33;;;;;;;32.05;6.80;;;;;;;;;;5030196;28;20190;-75
2024/01/02 11:40:32;;;;;;;32.67;7.47;;;;;;;;;;5024996;28;20229;-75
2024/01/02 11:43:05;;;;;;;27.17;7.22;;;;;;;;;;5023947;28;20192;-74
2024/01/02 11:45:33;;;;;;;27.95;7.28;;;;;;;;;;5029168;28;20213;-74
2024/01/02 11:48:17;;;;;;;31.35;8.77;;;;;;;;;;5028504;28;20197;-76
2024/01/02 11:50:57;;;;;;;29.98;9.25;;;;;;;;;;4994607;28;20233;-76
2024/01/02 11:54:11;;;;;;;27.08;9.45;;;;;;;;;;5009706;28;20598;-76
2024/01/02 11:56:37;;;;;;;28.63;11.60;;;;;;;;;;4961400;28;20210;-76
2024/01/02 11:59:08;;;;;;;33.00;10.65;;;;;;;;;;5030227;28;20194;-76
2024/01/02 12:01:46;;;;;;;30.08;11.07;;;;;;;;;;5003710;28;20282;-76
2024/01/02 12:04:30;;;;;;;25.88;9.90;;;;;;;;;;5027271;28;20218;-76
2024/01/02 12:07:15;;;;;;;25.98;10.60;;;;;;;;;;5012374;28;20662;-76
2024/01/02 12:09:44;;;;;;;29.63;11.23;;;;;;;;;;5025664;28;20192;-76
2024/01/02 12:12:29;;;;;;;27.55;11.57;;;;;;;;;;5011448;28;20190;-76
2024/01/02 12:15:48;;;;;;;26.23;10.95;;;;;;;;;;5016527;28;20187;-76
2024/01/02 12:18:15;;;;;;;32.20;12.30;;;;;;;;;;4945867;28;20266;-76
2024/01/02 12:20:50;;;;;;;26.05;11.63;;;;;;;;;;4995523;28;20376;-75
2024/01/02 12:23:16;;;;;;;25.20;9.77;;;;;;;;;;5008846;28;20186;-78
2024/01/02 12:25:43;;;;;;;24.83;9.88;;;;;;;;;;5012749;28;20182;-75
2024/01/02 12:28:10;;;;;;;18.70;9.80;;;;;;;;;;5028139;28;20356;-76
2024/01/02 12:31:03;;;;;;;18.92;9.25;;;;;;;;;;5026772;28;20222;-76
2024/01/02 12:33:34;;;;;;;16.83;8.65;;;;;;;;;;5029267;28;20193;-76
2024/01/02 12:36:19;;;;;;;16.60;6.95;;;;;;;;;;5011893;28;20253;-77
2024/01/02 12:38:47;;;;;;;15.20;7.45;;;;;;;;;;5024482;28;20201;-78
2024/01/02 12:41:23;;;;;;;12.57;6.22;;;;;;;;;;5027430;28;20220;-77
2024/01/02 12:43:52;;;;;;;6.53;4.65;;;;;;;;;;5008631;28;20268;-77
2024/01/02 12:46:26;;;;;;;6.30;4.93;;;;;;;;;;5013153;28;20183;-77
2024/01/02 12:49:09;;;;;;;10.07;4.62;;;;;;;;;;4592856;28;10002846;-76
2024/01/02 12:51:36;;;;;;;7.40;4.82;;;;;;;;;;5002750;28;20232;-76
2024/01/02 12:54:02;;;;;;;7.00;4.13;;;;;;;;;;5020573;28;20273;-76
2024/01/02 12:56:32;;;;;;;8.85;4.45;;;;;;;;;;5017668;28;20187;-77
2024/01/02 12:59:03;;;;;;;6.20;4.22;;;;;;;;;;5027852;28;20253;-77
2024/01/02 13:01:30;;;;;;;4.88;4.38;;;;;;;;;;5024365;28;20604;-77
2024/01/02 13:03:55;;;;;;;4.53;3.95;;;;;;;;;;5018664;28;20236;-78
2024/01/02 13:06:21;;;;;;;4.80;3.95;;;;;;;;;;4985162;28;20555;-77
2024/01/02 13:08:49;;;;;;;5.03;4.22;;;;;;;;;;5003348;28;20187;-77
2024/01/02 13:11:16;;;;;;;4.38;3.97;;;;;;;;;;5019208;28;20206;-77
2024/01/02 13:13:42;;;;;;;5.18;4.30;;;;;;;;;;5023993;28;20319;-78
2024/01/02 13:16:08;;;;;;;6.57;4.32;;;;;;;;;;5010433;28;20732;-78
2024/01/02 13:18:34;;;;;;;4.80;4.40;;;;;;;;;;5027119;28;20818;-76
2024/01/02 13:20:59;;;;;;;3.85;3.53;;;;;;;;;;5019750;28;20261;-75
2024/01/02 13:23:25;;;;;;;3.97;3.58;;;;;;;;;;5024994;28;20198;-76
2024/01/02 13:25:52;;;;;;;4.28;3.88;;;;;;;;;;5026506;28;20188;-76
2024/01/02 13:28:19;;;;;;;3.80;3.50;;;;;;;;;;5012494;28;20197;-76
2024/01/02 13:30:47;;;;;;;3.83;3.42;;;;;;;;;;5016036;28;20214;-76
2024/01/02 13:33:14;;;;;;;3.85;3.22;;;;;;;;;;5021775;28;20273;-76
2024/01/02 13:35:43;;;;;;;3.15;2.90;;;;;;;;;;5016504;28;20214;-77
2024/01/02 13:38:09;;;;;;;2.83;2.50;;;;;;;;;;5028205;28;20182;-77
2024/01/02 13:40:34;;;;;;;2.60;2.20;;;;;;;;;;5027049;28;20184;-77
2024/01/02 13:43:01;;;;;;;2.45;2.28;;;;;;;;;;5028518;28;20209;-76
2024/01/02 13:45:32;;;;;;;2.30;2.10;;;;;;;;;;5009858;28;20194;-76
2024/01/02 13:48:12;;;;;;;2.90;2.15;;;;;;;;;;5010871;28;20195;-76
2024/01/02 13:50:38;;;;;;;1.90;1.80;;;;;;;;;;5019596;28;20685;-76
2024/01/02 13:53:08;;;;;;;2.38;1.75;;;;;;;;;;5030275;28;20637;-77
2024/01/02 13:55:35;;;;;;;1.60;1.50;;;;;;;;;;5025622;28;20190;-77
2024/01/02 13:58:12;;;;;;;1.65;1.55;;;;;;;;;;5028005;28;20201;-77
2024/01/02 14:00:38;;;;;;;1.13;1.02;;;;;;;;;;5026268;28;20240;-77
2024/01/02 14:03:06;;;;;;;1.30;1.20;;;;;;;;;;5020178;28;20780;-76
2024/01/02 14:05:33;;;;;;;1.15;0.93;;;;;;;;;;5027504;28;20681;-76
2024/01/02 14:07:59;;;;;;;0.80;0.80;;;;;;;;;;5027730;28;20196;-76
2024/01/02 14:10:37;;;;;;;4.47;0.93;;;;;;;;;;5028374;28;20280;-76
2024/01/02 14:13:04;;;;;;;2.67;1.23;;;;;;;;;;5024786;28;20251;-75
2024/01/02 14:15:30;;;;;;;3.28;1.02;;;;;;;;;;5007035;28;20635;-76
2024/01/02 14:18:03;;;;;;;0.95;0.65;;;;;;;;;;5028650;28;20216;-75
2024/01/02 14:20:44;;;;;;;1.58;1.00;;;;;;;;;;5020949;28;20318;-75
2024/01/02 14:23:28;;;;;;;0.43;0.40;;;;;;;;;;5008480;28;20186;-76
2024/01/02 14:26:12;;;;;;;1.77;0.60;;;;;;;;;;4984591;28;20191;-77
2024/01/02 14:29:04;;;;;;;0.60;0.60;;;;;;;;;;4651873;28;9999833;-76
2024/01/02 14:31:51;;;;;;;0.40;0.40;;;;;;;;;;4985653;28;20214;-77
2024/01/02 14:34:41;;;;;;;0.30;0.30;;;;;;;;;;5008921;28;20260;-76
2024/01/02 14:37:25;;;;;;;1.63;0.70;;;;;;;;;;5004780;28;20740;-77
2024/01/02 14:40:10;;;;;;;0.75;0.60;;;;;;;;;;4997129;28;20675;-77
2024/01/02 14:42:57;;;;;;;0.43;0.43;;;;;;;;;;5005940;28;20210;-76
2024/01/02 14:45:32;;;;;;;0.95;0.57;;;;;;;;;;4999947;28;20187;-77
2024/01/02 14:48:41;;;;;;;0.95;0.52;;;;;;;;;;5009716;28;20751;-77